sensor_id;sensor_type;location;lat;lon;timestamp;temperature;humidity
67279;DHT22;54193;53.746;10.058;2022-07-17T00:01:10;10.37;85.99
67279;DHT22;54193;53.746;10.058;2022-07-17T00:03:56;10.45;86.19
67279;DHT22;54193;53.746;10.058;2022-07-17T00:06:41;10.44;86.36
67279;DHT22;54193;53.746;10.058;2022-07-17T00:09:29;10.41;86.64
67279;DHT22;54193;53.746;10.058;2022-07-17T00:12:16;10.40;86.83
67279;DHT22;54193;53.746;10.058;2022-07-17T00:15:02;10.41;86.88
67279;DHT22;54193;53.746;10.058;2022-07-17T00:17:48;10.37;86.98
67279;DHT22;54193;53.746;10.058;2022-07-17T00:20:34;10.33;87.12
67279;DHT22;54193;53.746;10.058;2022-07-17T00:23:20;10.34;87.12
67279;DHT22;54193;53.746;10.058;2022-07-17T00:26:06;10.36;87.29
67279;DHT22;54193;53.746;10.058;2022-07-17T00:28:52;10.41;87.36
67279;DHT22;54193;53.746;10.058;2022-07-17T00:31:37;10.44;87.51
67279;DHT22;54193;53.746;10.058;2022-07-17T00:34:23;10.53;87.74
67279;DHT22;54193;53.746;10.058;2022-07-17T00:37:10;10.61;87.42
67279;DHT22;54193;53.746;10.058;2022-07-17T00:39:56;10.69;87.46
67279;DHT22;54193;53.746;10.058;2022-07-17T00:42:42;10.75;87.32
67279;DHT22;54193;53.746;10.058;2022-07-17T00:45:28;10.79;87.22
67279;DHT22;54193;53.746;10.058;2022-07-17T00:48:13;10.74;86.84
67279;DHT22;54193;53.746;10.058;2022-07-17T00:50:59;10.68;86.64
67279;DHT22;54193;53.746;10.058;2022-07-17T00:53:46;10.65;87.03
67279;DHT22;54193;53.746;10.058;2022-07-17T00:56:32;10.65;87.13
67279;DHT22;54193;53.746;10.058;2022-07-17T00:59:19;10.55;87.13
67279;DHT22;54193;53.746;10.058;2022-07-17T01:02:10;10.48;87.51
67279;DHT22;54193;53.746;10.058;2022-07-17T01:04:56;10.41;87.87
67279;DHT22;54193;53.746;10.058;2022-07-17T01:07:42;10.34;88.18
67279;DHT22;54193;53.746;10.058;2022-07-17T01:10:28;10.27;88.36
67279;DHT22;54193;53.746;10.058;2022-07-17T01:13:14;10.23;88.60
67279;DHT22;54193;53.746;10.058;2022-07-17T01:16:00;10.20;88.77
67279;DHT22;54193;53.746;10.058;2022-07-17T01:18:45;10.23;88.89
67279;DHT22;54193;53.746;10.058;2022-07-17T01:21:45;10.23;88.66
67279;DHT22;54193;53.746;10.058;2022-07-17T01:24:31;10.17;88.65
67279;DHT22;54193;53.746;10.058;2022-07-17T01:27:16;10.18;88.77
67279;DHT22;54193;53.746;10.058;2022-07-17T01:30:03;10.29;88.96
67279;DHT22;54193;53.746;10.058;2022-07-17T01:32:50;10.38;89.10
67279;DHT22;54193;53.746;10.058;2022-07-17T01:35:35;10.50;89.15
67279;DHT22;54193;53.746;10.058;2022-07-17T01:38:21;10.55;88.82
67279;DHT22;54193;53.746;10.058;2022-07-17T01:41:07;10.60;89.16
67279;DHT22;54193;53.746;10.058;2022-07-17T01:43:52;10.75;88.93
67279;DHT22;54193;53.746;10.058;2022-07-17T01:46:38;10.68;88.69
67279;DHT22;54193;53.746;10.058;2022-07-17T01:49:24;10.74;88.89
67279;DHT22;54193;53.746;10.058;2022-07-17T01:52:10;10.58;89.05
67279;DHT22;54193;53.746;10.058;2022-07-17T01:54:56;10.58;89.13
67279;DHT22;54193;53.746;10.058;2022-07-17T01:57:42;10.69;89.38
67279;DHT22;54193;53.746;10.058;2022-07-17T02:00:28;10.85;89.39
67279;DHT22;54193;53.746;10.058;2022-07-17T02:03:14;10.98;89.08
67279;DHT22;54193;53.746;10.058;2022-07-17T02:06:00;11.02;88.73
67279;DHT22;54193;53.746;10.058;2022-07-17T02:08:46;11.05;88.42
67279;DHT22;54193;53.746;10.058;2022-07-17T02:11:34;11.10;88.42
67279;DHT22;54193;53.746;10.058;2022-07-17T02:14:20;11.10;88.20
67279;DHT22;54193;53.746;10.058;2022-07-17T02:17:06;11.23;88.34
67279;DHT22;54193;53.746;10.058;2022-07-17T02:19:51;11.24;88.10
67279;DHT22;54193;53.746;10.058;2022-07-17T02:22:37;11.29;87.92
67279;DHT22;54193;53.746;10.058;2022-07-17T02:25:23;11.36;88.02
67279;DHT22;54193;53.746;10.058;2022-07-17T02:28:09;11.43;87.78
67279;DHT22;54193;53.746;10.058;2022-07-17T02:30:55;11.51;87.55
67279;DHT22;54193;53.746;10.058;2022-07-17T02:33:40;11.51;87.41
67279;DHT22;54193;53.746;10.058;2022-07-17T02:36:26;11.57;87.47
67279;DHT22;54193;53.746;10.058;2022-07-17T02:39:12;11.58;87.48
67279;DHT22;54193;53.746;10.058;2022-07-17T02:41:58;11.58;87.47
67279;DHT22;54193;53.746;10.058;2022-07-17T02:44:43;11.64;87.37
67279;DHT22;54193;53.746;10.058;2022-07-17T02:47:31;11.68;86.88
67279;DHT22;54193;53.746;10.058;2022-07-17T02:50:17;11.70;86.65
67279;DHT22;54193;53.746;10.058;2022-07-17T02:53:02;11.75;86.38
67279;DHT22;54193;53.746;10.058;2022-07-17T02:55:48;11.79;85.90
67279;DHT22;54193;53.746;10.058;2022-07-17T02:58:33;11.77;85.99
67279;DHT22;54193;53.746;10.058;2022-07-17T03:01:19;11.92;85.77
67279;DHT22;54193;53.746;10.058;2022-07-17T03:04:05;12.03;85.78
67279;DHT22;54193;53.746;10.058;2022-07-17T03:06:51;11.92;85.30
67279;DHT22;54193;53.746;10.058;2022-07-17T03:09:37;11.74;85.82
67279;DHT22;54193;53.746;10.058;2022-07-17T03:12:22;11.78;85.91
67279;DHT22;54193;53.746;10.058;2022-07-17T03:15:08;11.82;86.30
67279;DHT22;54193;53.746;10.058;2022-07-17T03:17:54;11.78;86.17
67279;DHT22;54193;53.746;10.058;2022-07-17T03:20:40;11.89;86.03
67279;DHT22;54193;53.746;10.058;2022-07-17T03:23:25;12.02;85.53
67279;DHT22;54193;53.746;10.058;2022-07-17T03:26:11;12.12;85.33
67279;DHT22;54193;53.746;10.058;2022-07-17T03:28:56;12.18;85.16
67279;DHT22;54193;53.746;10.058;2022-07-17T03:31:46;12.19;85.07
67279;DHT22;54193;53.746;10.058;2022-07-17T03:34:32;12.20;85.07
67279;DHT22;54193;53.746;10.058;2022-07-17T03:37:17;12.19;85.02
67279;DHT22;54193;53.746;10.058;2022-07-17T03:40:05;12.19;85.23
67279;DHT22;54193;53.746;10.058;2022-07-17T03:42:51;12.22;85.20
67279;DHT22;54193;53.746;10.058;2022-07-17T03:45:37;12.26;85.24
67279;DHT22;54193;53.746;10.058;2022-07-17T03:48:23;12.39;84.94
67279;DHT22;54193;53.746;10.058;2022-07-17T03:51:08;12.37;84.30
67279;DHT22;54193;53.746;10.058;2022-07-17T03:53:54;12.34;84.42
67279;DHT22;54193;53.746;10.058;2022-07-17T03:56:41;12.41;84.48
67279;DHT22;54193;53.746;10.058;2022-07-17T03:59:26;12.53;84.51
67279;DHT22;54193;53.746;10.058;2022-07-17T04:02:13;12.54;83.92
67279;DHT22;54193;53.746;10.058;2022-07-17T04:04:58;12.63;83.95
67279;DHT22;54193;53.746;10.058;2022-07-17T04:07:44;12.60;82.96
67279;DHT22;54193;53.746;10.058;2022-07-17T04:10:30;12.63;83.56
67279;DHT22;54193;53.746;10.058;2022-07-17T04:13:15;12.58;83.41
67279;DHT22;54193;53.746;10.058;2022-07-17T04:16:01;12.63;83.48
67279;DHT22;54193;53.746;10.058;2022-07-17T04:18:47;12.67;83.53
67279;DHT22;54193;53.746;10.058;2022-07-17T04:21:33;12.80;83.27
67279;DHT22;54193;53.746;10.058;2022-07-17T04:24:18;12.84;82.56
67279;DHT22;54193;53.746;10.058;2022-07-17T04:27:04;13.01;82.39
67279;DHT22;54193;53.746;10.058;2022-07-17T04:29:50;13.01;81.92
67279;DHT22;54193;53.746;10.058;2022-07-17T04:32:36;13.08;81.91
67279;DHT22;54193;53.746;10.058;2022-07-17T04:35:22;13.12;81.59
67279;DHT22;54193;53.746;10.058;2022-07-17T04:38:08;13.16;82.07
67279;DHT22;54193;53.746;10.058;2022-07-17T04:40:54;13.18;81.85
67279;DHT22;54193;53.746;10.058;2022-07-17T04:43:40;13.14;81.33
67279;DHT22;54193;53.746;10.058;2022-07-17T04:46:26;13.29;81.65
67279;DHT22;54193;53.746;10.058;2022-07-17T04:49:13;13.23;80.96
67279;DHT22;54193;53.746;10.058;2022-07-17T04:51:59;13.36;81.44
67279;DHT22;54193;53.746;10.058;2022-07-17T04:54:44;13.32;80.71
67279;DHT22;54193;53.746;10.058;2022-07-17T04:57:30;13.64;80.25
67279;DHT22;54193;53.746;10.058;2022-07-17T05:00:16;13.95;79.26
67279;DHT22;54193;53.746;10.058;2022-07-17T05:03:02;14.08;78.40
67279;DHT22;54193;53.746;10.058;2022-07-17T05:05:48;14.09;78.57
67279;DHT22;54193;53.746;10.058;2022-07-17T05:08:34;14.02;77.93
67279;DHT22;54193;53.746;10.058;2022-07-17T05:11:20;14.08;78.02
67279;DHT22;54193;53.746;10.058;2022-07-17T05:14:05;14.07;78.32
67279;DHT22;54193;53.746;10.058;2022-07-17T05:16:51;14.02;78.22
67279;DHT22;54193;53.746;10.058;2022-07-17T05:19:37;13.98;78.21
67279;DHT22;54193;53.746;10.058;2022-07-17T05:22:23;13.97;78.15
67279;DHT22;54193;53.746;10.058;2022-07-17T05:25:09;14.08;78.77
67279;DHT22;54193;53.746;10.058;2022-07-17T05:27:55;13.98;77.74
67279;DHT22;54193;53.746;10.058;2022-07-17T05:30:40;13.92;78.56
67279;DHT22;54193;53.746;10.058;2022-07-17T05:33:26;14.00;78.70
67279;DHT22;54193;53.746;10.058;2022-07-17T05:36:13;14.02;78.84
67279;DHT22;54193;53.746;10.058;2022-07-17T05:38:59;14.15;78.68
67279;DHT22;54193;53.746;10.058;2022-07-17T05:41:46;14.29;79.05
67279;DHT22;54193;53.746;10.058;2022-07-17T05:44:31;14.53;78.05
67279;DHT22;54193;53.746;10.058;2022-07-17T05:47:17;14.62;77.53
67279;DHT22;54193;53.746;10.058;2022-07-17T05:50:03;14.81;76.67
67279;DHT22;54193;53.746;10.058;2022-07-17T05:52:49;14.94;77.43
67279;DHT22;54193;53.746;10.058;2022-07-17T05:55:34;14.76;75.13
67279;DHT22;54193;53.746;10.058;2022-07-17T05:58:20;14.85;75.79
67279;DHT22;54193;53.746;10.058;2022-07-17T06:01:06;14.74;75.54
67279;DHT22;54193;53.746;10.058;2022-07-17T06:03:52;14.63;76.31
67279;DHT22;54193;53.746;10.058;2022-07-17T06:06:37;14.66;76.25
67279;DHT22;54193;53.746;10.058;2022-07-17T06:09:23;14.91;75.75
67279;DHT22;54193;53.746;10.058;2022-07-17T06:12:08;15.17;75.15
67279;DHT22;54193;53.746;10.058;2022-07-17T06:14:54;15.60;73.74
67279;DHT22;54193;53.746;10.058;2022-07-17T06:17:40;15.93;74.07
67279;DHT22;54193;53.746;10.058;2022-07-17T06:20:26;15.89;72.94
67279;DHT22;54193;53.746;10.058;2022-07-17T06:23:11;16.08;72.64
67279;DHT22;54193;53.746;10.058;2022-07-17T06:25:57;16.45;72.15
67279;DHT22;54193;53.746;10.058;2022-07-17T06:28:43;16.59;71.78
67279;DHT22;54193;53.746;10.058;2022-07-17T06:31:28;16.45;71.40
67279;DHT22;54193;53.746;10.058;2022-07-17T06:34:14;16.44;70.75
67279;DHT22;54193;53.746;10.058;2022-07-17T06:37:00;16.73;70.17
67279;DHT22;54193;53.746;10.058;2022-07-17T06:39:46;16.63;69.22
67279;DHT22;54193;53.746;10.058;2022-07-17T06:42:31;16.96;70.35
67279;DHT22;54193;53.746;10.058;2022-07-17T06:45:17;17.66;68.44
67279;DHT22;54193;53.746;10.058;2022-07-17T06:48:03;17.76;67.08
67279;DHT22;54193;53.746;10.058;2022-07-17T06:50:49;17.53;67.88
67279;DHT22;54193;53.746;10.058;2022-07-17T06:53:35;17.32;66.87
67279;DHT22;54193;53.746;10.058;2022-07-17T06:56:24;16.70;68.82
67279;DHT22;54193;53.746;10.058;2022-07-17T06:59:11;16.58;69.32
67279;DHT22;54193;53.746;10.058;2022-07-17T07:01:56;16.48;69.57
67279;DHT22;54193;53.746;10.058;2022-07-17T07:04:42;17.00;70.67
67279;DHT22;54193;53.746;10.058;2022-07-17T07:07:28;17.55;68.32
67279;DHT22;54193;53.746;10.058;2022-07-17T07:10:15;17.10;68.69
67279;DHT22;54193;53.746;10.058;2022-07-17T07:13:00;16.73;69.27
67279;DHT22;54193;53.746;10.058;2022-07-17T07:15:48;16.89;69.84
67279;DHT22;54193;53.746;10.058;2022-07-17T07:18:35;17.75;67.77
67279;DHT22;54193;53.746;10.058;2022-07-17T07:21:21;18.17;67.27
67279;DHT22;54193;53.746;10.058;2022-07-17T07:24:08;19.13;65.34
67279;DHT22;54193;53.746;10.058;2022-07-17T07:26:54;18.99;64.17
67279;DHT22;54193;53.746;10.058;2022-07-17T07:29:39;17.96;65.61
67279;DHT22;54193;53.746;10.058;2022-07-17T07:32:25;17.96;65.80
67279;DHT22;54193;53.746;10.058;2022-07-17T07:35:12;16.69;68.00
67279;DHT22;54193;53.746;10.058;2022-07-17T07:38:02;16.89;68.43
67279;DHT22;54193;53.746;10.058;2022-07-17T07:40:47;17.58;66.83
67279;DHT22;54193;53.746;10.058;2022-07-17T07:43:33;18.03;65.57
67279;DHT22;54193;53.746;10.058;2022-07-17T07:46:22;18.27;64.55
67279;DHT22;54193;53.746;10.058;2022-07-17T07:49:07;18.45;63.15
67279;DHT22;54193;53.746;10.058;2022-07-17T07:51:53;19.71;63.04
67279;DHT22;54193;53.746;10.058;2022-07-17T07:54:39;18.75;63.08
67279;DHT22;54193;53.746;10.058;2022-07-17T07:57:24;18.98;61.95
67279;DHT22;54193;53.746;10.058;2022-07-17T08:00:11;17.93;64.95
67279;DHT22;54193;53.746;10.058;2022-07-17T08:02:57;17.91;64.94
67279;DHT22;54193;53.746;10.058;2022-07-17T08:05:43;19.51;63.70
67279;DHT22;54193;53.746;10.058;2022-07-17T08:08:28;18.62;63.96
67279;DHT22;54193;53.746;10.058;2022-07-17T08:11:14;17.42;66.82
67279;DHT22;54193;53.746;10.058;2022-07-17T08:14:00;17.51;67.69
67279;DHT22;54193;53.746;10.058;2022-07-17T08:16:46;19.35;64.95
67279;DHT22;54193;53.746;10.058;2022-07-17T08:19:32;19.58;63.36
67279;DHT22;54193;53.746;10.058;2022-07-17T08:22:17;19.17;60.41
67279;DHT22;54193;53.746;10.058;2022-07-17T08:25:03;20.45;63.31
67279;DHT22;54193;53.746;10.058;2022-07-17T08:27:49;20.88;60.17
67279;DHT22;54193;53.746;10.058;2022-07-17T08:30:36;20.78;60.38
67279;DHT22;54193;53.746;10.058;2022-07-17T08:33:22;19.47;61.95
67279;DHT22;54193;53.746;10.058;2022-07-17T08:36:08;19.61;64.25
67279;DHT22;54193;53.746;10.058;2022-07-17T08:38:55;18.47;63.86
67279;DHT22;54193;53.746;10.058;2022-07-17T08:41:41;18.82;64.47
67279;DHT22;54193;53.746;10.058;2022-07-17T08:44:26;19.72;62.89
67279;DHT22;54193;53.746;10.058;2022-07-17T08:47:14;20.24;61.45
67279;DHT22;54193;53.746;10.058;2022-07-17T08:50:00;18.89;62.61
67279;DHT22;54193;53.746;10.058;2022-07-17T08:52:47;20.48;59.88
67279;DHT22;54193;53.746;10.058;2022-07-17T08:55:33;19.72;59.37
67279;DHT22;54193;53.746;10.058;2022-07-17T08:58:19;19.37;62.46
67279;DHT22;54193;53.746;10.058;2022-07-17T09:01:05;18.76;59.91
67279;DHT22;54193;53.746;10.058;2022-07-17T09:03:59;20.77;59.15
67279;DHT22;54193;53.746;10.058;2022-07-17T09:06:46;19.34;58.56
67279;DHT22;54193;53.746;10.058;2022-07-17T09:09:33;19.44;60.40
67279;DHT22;54193;53.746;10.058;2022-07-17T09:12:28;21.67;55.62
67279;DHT22;54193;53.746;10.058;2022-07-17T09:15:16;19.68;58.26
67279;DHT22;54193;53.746;10.058;2022-07-17T09:18:02;18.85;61.03
67279;DHT22;54193;53.746;10.058;2022-07-17T09:20:53;20.14;58.09
67279;DHT22;54193;53.746;10.058;2022-07-17T09:23:40;20.40;54.60
67279;DHT22;54193;53.746;10.058;2022-07-17T09:26:26;19.99;56.52
67279;DHT22;54193;53.746;10.058;2022-07-17T09:29:12;20.48;55.00
67279;DHT22;54193;53.746;10.058;2022-07-17T09:31:58;20.13;59.33
67279;DHT22;54193;53.746;10.058;2022-07-17T09:34:45;20.16;60.65
67279;DHT22;54193;53.746;10.058;2022-07-17T09:37:32;20.55;60.00
67279;DHT22;54193;53.746;10.058;2022-07-17T09:40:20;21.16;55.29
67279;DHT22;54193;53.746;10.058;2022-07-17T09:43:37;21.42;54.41
67279;DHT22;54193;53.746;10.058;2022-07-17T09:46:30;19.90;55.48
67279;DHT22;54193;53.746;10.058;2022-07-17T09:49:17;22.10;55.51
67279;DHT22;54193;53.746;10.058;2022-07-17T09:52:03;21.94;55.03
67279;DHT22;54193;53.746;10.058;2022-07-17T09:54:51;21.99;52.63
67279;DHT22;54193;53.746;10.058;2022-07-17T09:57:40;20.36;56.69
67279;DHT22;54193;53.746;10.058;2022-07-17T10:00:26;20.03;59.01
67279;DHT22;54193;53.746;10.058;2022-07-17T10:03:12;20.95;53.78
67279;DHT22;54193;53.746;10.058;2022-07-17T10:06:03;22.60;52.50
67279;DHT22;54193;53.746;10.058;2022-07-17T10:08:50;22.15;53.60
67279;DHT22;54193;53.746;10.058;2022-07-17T10:11:40;21.68;50.17
67279;DHT22;54193;53.746;10.058;2022-07-17T10:14:26;23.33;49.07
67279;DHT22;54193;53.746;10.058;2022-07-17T10:17:13;23.01;53.35
67279;DHT22;54193;53.746;10.058;2022-07-17T10:19:59;21.90;50.04
67279;DHT22;54193;53.746;10.058;2022-07-17T10:22:46;22.33;53.65
67279;DHT22;54193;53.746;10.058;2022-07-17T10:25:31;22.46;50.76
67279;DHT22;54193;53.746;10.058;2022-07-17T10:28:17;22.36;52.89
67279;DHT22;54193;53.746;10.058;2022-07-17T10:31:03;22.13;50.42
67279;DHT22;54193;53.746;10.058;2022-07-17T10:34:04;21.37;57.85
67279;DHT22;54193;53.746;10.058;2022-07-17T10:36:50;21.03;52.83
67279;DHT22;54193;53.746;10.058;2022-07-17T10:39:36;21.10;53.76
67279;DHT22;54193;53.746;10.058;2022-07-17T10:48:22;20.87;58.37
67279;DHT22;54193;53.746;10.058;2022-07-17T10:51:08;21.65;53.91
67279;DHT22;54193;53.746;10.058;2022-07-17T10:53:58;21.63;54.84
67279;DHT22;54193;53.746;10.058;2022-07-17T10:56:46;21.29;55.29
67279;DHT22;54193;53.746;10.058;2022-07-17T10:59:33;20.81;53.53
67279;DHT22;54193;53.746;10.058;2022-07-17T11:02:28;20.29;55.40
67279;DHT22;54193;53.746;10.058;2022-07-17T11:05:15;20.16;56.93
67279;DHT22;54193;53.746;10.058;2022-07-17T11:08:00;20.52;60.12
67279;DHT22;54193;53.746;10.058;2022-07-17T11:10:51;20.32;56.12
67279;DHT22;54193;53.746;10.058;2022-07-17T11:13:36;20.70;55.60
67279;DHT22;54193;53.746;10.058;2022-07-17T11:16:27;20.51;55.61
67279;DHT22;54193;53.746;10.058;2022-07-17T11:22:12;20.60;55.83
67279;DHT22;54193;53.746;10.058;2022-07-17T11:24:59;20.19;53.63
67279;DHT22;54193;53.746;10.058;2022-07-17T11:27:48;20.40;57.95
67279;DHT22;54193;53.746;10.058;2022-07-17T11:30:35;20.99;57.20
67279;DHT22;54193;53.746;10.058;2022-07-17T11:33:20;21.43;56.64
67279;DHT22;54193;53.746;10.058;2022-07-17T11:36:06;20.96;54.92
67279;DHT22;54193;53.746;10.058;2022-07-17T11:38:54;21.03;55.47
67279;DHT22;54193;53.746;10.058;2022-07-17T11:41:42;20.82;54.27
67279;DHT22;54193;53.746;10.058;2022-07-17T11:44:28;21.20;53.96
67279;DHT22;54193;53.746;10.058;2022-07-17T11:47:21;20.96;55.36
67279;DHT22;54193;53.746;10.058;2022-07-17T11:50:12;20.88;51.71
67279;DHT22;54193;53.746;10.058;2022-07-17T11:53:03;21.09;54.06
67279;DHT22;54193;53.746;10.058;2022-07-17T11:55:49;20.78;53.91
67279;DHT22;54193;53.746;10.058;2022-07-17T11:58:42;20.94;55.03
67279;DHT22;54193;53.746;10.058;2022-07-17T12:01:38;21.47;55.76
67279;DHT22;54193;53.746;10.058;2022-07-17T12:04:24;20.98;54.48
67279;DHT22;54193;53.746;10.058;2022-07-17T12:07:10;20.84;55.52
67279;DHT22;54193;53.746;10.058;2022-07-17T12:09:55;20.54;56.36
67279;DHT22;54193;53.746;10.058;2022-07-17T12:12:56;20.37;56.98
67279;DHT22;54193;53.746;10.058;2022-07-17T12:15:42;20.45;56.38
67279;DHT22;54193;53.746;10.058;2022-07-17T12:18:29;20.61;55.76
67279;DHT22;54193;53.746;10.058;2022-07-17T12:21:16;20.48;55.25
67279;DHT22;54193;53.746;10.058;2022-07-17T12:24:06;20.61;56.05
67279;DHT22;54193;53.746;10.058;2022-07-17T12:26:53;20.33;56.67
67279;DHT22;54193;53.746;10.058;2022-07-17T12:29:40;20.47;56.68
67279;DHT22;54193;53.746;10.058;2022-07-17T12:32:26;20.92;55.77
67279;DHT22;54193;53.746;10.058;2022-07-17T12:35:12;21.13;54.22
67279;DHT22;54193;53.746;10.058;2022-07-17T12:37:59;21.33;53.65
67279;DHT22;54193;53.746;10.058;2022-07-17T12:40:44;21.26;54.95
67279;DHT22;54193;53.746;10.058;2022-07-17T12:43:30;21.07;52.72
67279;DHT22;54193;53.746;10.058;2022-07-17T12:46:16;21.36;53.27
67279;DHT22;54193;53.746;10.058;2022-07-17T12:49:02;21.27;53.29
67279;DHT22;54193;53.746;10.058;2022-07-17T12:51:47;21.63;55.34
67279;DHT22;54193;53.746;10.058;2022-07-17T12:54:35;21.74;52.77
67279;DHT22;54193;53.746;10.058;2022-07-17T12:57:20;21.75;53.71
67279;DHT22;54193;53.746;10.058;2022-07-17T13:00:07;21.97;54.77
67279;DHT22;54193;53.746;10.058;2022-07-17T13:02:53;21.71;53.92
67279;DHT22;54193;53.746;10.058;2022-07-17T13:05:41;21.43;56.48
67279;DHT22;54193;53.746;10.058;2022-07-17T13:08:28;21.85;54.23
67279;DHT22;54193;53.746;10.058;2022-07-17T13:11:14;21.20;54.00
67279;DHT22;54193;53.746;10.058;2022-07-17T13:13:59;21.15;53.24
67279;DHT22;54193;53.746;10.058;2022-07-17T13:16:46;21.00;54.82
67279;DHT22;54193;53.746;10.058;2022-07-17T13:19:32;21.39;56.21
67279;DHT22;54193;53.746;10.058;2022-07-17T13:22:18;21.80;57.88
67279;DHT22;54193;53.746;10.058;2022-07-17T13:25:04;21.90;56.61
67279;DHT22;54193;53.746;10.058;2022-07-17T13:27:50;22.02;53.84
67279;DHT22;54193;53.746;10.058;2022-07-17T13:30:36;21.30;53.23
67279;DHT22;54193;53.746;10.058;2022-07-17T13:33:23;21.61;55.60
67279;DHT22;54193;53.746;10.058;2022-07-17T13:36:09;21.55;55.63
67279;DHT22;54193;53.746;10.058;2022-07-17T13:38:54;21.42;55.92
67279;DHT22;54193;53.746;10.058;2022-07-17T13:41:40;21.43;56.65
67279;DHT22;54193;53.746;10.058;2022-07-17T13:44:29;21.58;54.77
67279;DHT22;54193;53.746;10.058;2022-07-17T13:47:15;21.10;55.20
67279;DHT22;54193;53.746;10.058;2022-07-17T13:50:01;21.05;54.71
67279;DHT22;54193;53.746;10.058;2022-07-17T13:52:46;21.34;55.88
67279;DHT22;54193;53.746;10.058;2022-07-17T13:55:32;21.68;56.21
67279;DHT22;54193;53.746;10.058;2022-07-17T13:58:18;21.87;54.86
67279;DHT22;54193;53.746;10.058;2022-07-17T14:01:07;21.65;54.40
67279;DHT22;54193;53.746;10.058;2022-07-17T14:03:53;21.60;57.12
67279;DHT22;54193;53.746;10.058;2022-07-17T14:06:39;21.67;56.33
67279;DHT22;54193;53.746;10.058;2022-07-17T14:09:24;21.65;54.66
67279;DHT22;54193;53.746;10.058;2022-07-17T14:12:10;21.50;55.08
67279;DHT22;54193;53.746;10.058;2022-07-17T14:14:56;21.73;55.62
67279;DHT22;54193;53.746;10.058;2022-07-17T14:17:41;21.63;55.96
67279;DHT22;54193;53.746;10.058;2022-07-17T14:20:27;21.71;57.25
67279;DHT22;54193;53.746;10.058;2022-07-17T14:23:13;21.36;56.99
67279;DHT22;54193;53.746;10.058;2022-07-17T14:25:59;21.53;58.95
67279;DHT22;54193;53.746;10.058;2022-07-17T14:28:45;21.82;55.58
67279;DHT22;54193;53.746;10.058;2022-07-17T14:31:30;21.84;55.46
67279;DHT22;54193;53.746;10.058;2022-07-17T14:34:18;21.37;57.42
67279;DHT22;54193;53.746;10.058;2022-07-17T14:37:04;21.68;56.46
67279;DHT22;54193;53.746;10.058;2022-07-17T14:39:53;22.25;56.36
67279;DHT22;54193;53.746;10.058;2022-07-17T14:42:39;22.09;54.63
67279;DHT22;54193;53.746;10.058;2022-07-17T14:45:25;21.58;56.44
67279;DHT22;54193;53.746;10.058;2022-07-17T14:48:10;21.57;55.85
67279;DHT22;54193;53.746;10.058;2022-07-17T14:50:56;21.43;56.76
67279;DHT22;54193;53.746;10.058;2022-07-17T14:53:42;21.49;57.09
67279;DHT22;54193;53.746;10.058;2022-07-17T14:56:28;21.51;56.33
67279;DHT22;54193;53.746;10.058;2022-07-17T14:59:14;21.32;56.82
67279;DHT22;54193;53.746;10.058;2022-07-17T15:01:59;21.30;56.53
67279;DHT22;54193;53.746;10.058;2022-07-17T15:04:45;21.64;56.92
67279;DHT22;54193;53.746;10.058;2022-07-17T15:07:31;21.77;55.19
67279;DHT22;54193;53.746;10.058;2022-07-17T15:10:16;21.51;56.24
67279;DHT22;54193;53.746;10.058;2022-07-17T15:13:02;21.32;56.99
67279;DHT22;54193;53.746;10.058;2022-07-17T15:15:48;21.34;57.30
67279;DHT22;54193;53.746;10.058;2022-07-17T15:18:34;21.29;57.24
67279;DHT22;54193;53.746;10.058;2022-07-17T15:21:19;21.27;56.34
67279;DHT22;54193;53.746;10.058;2022-07-17T15:24:05;21.29;57.18
67279;DHT22;54193;53.746;10.058;2022-07-17T15:26:51;21.18;55.78
67279;DHT22;54193;53.746;10.058;2022-07-17T15:29:37;21.29;56.75
67279;DHT22;54193;53.746;10.058;2022-07-17T15:32:22;21.22;56.96
67279;DHT22;54193;53.746;10.058;2022-07-17T15:35:08;21.51;56.24
67279;DHT22;54193;53.746;10.058;2022-07-17T15:37:54;21.43;56.80
67279;DHT22;54193;53.746;10.058;2022-07-17T15:40:40;21.39;56.48
67279;DHT22;54193;53.746;10.058;2022-07-17T15:43:26;21.27;57.75
67279;DHT22;54193;53.746;10.058;2022-07-17T15:46:12;21.16;57.91
67279;DHT22;54193;53.746;10.058;2022-07-17T15:48:59;20.98;57.04
67279;DHT22;54193;53.746;10.058;2022-07-17T15:51:45;21.06;58.39
67279;DHT22;54193;53.746;10.058;2022-07-17T15:54:31;21.02;58.09
67279;DHT22;54193;53.746;10.058;2022-07-17T15:57:16;20.79;58.34
67279;DHT22;54193;53.746;10.058;2022-07-17T16:00:04;20.82;58.78
67279;DHT22;54193;53.746;10.058;2022-07-17T16:02:50;20.63;59.42
67279;DHT22;54193;53.746;10.058;2022-07-17T16:05:37;20.95;59.66
67279;DHT22;54193;53.746;10.058;2022-07-17T16:08:23;20.95;59.27
67279;DHT22;54193;53.746;10.058;2022-07-17T16:11:08;20.88;61.39
67279;DHT22;54193;53.746;10.058;2022-07-17T16:13:54;20.71;60.20
67279;DHT22;54193;53.746;10.058;2022-07-17T16:16:40;20.51;61.28
67279;DHT22;54193;53.746;10.058;2022-07-17T16:19:25;20.54;62.32
67279;DHT22;54193;53.746;10.058;2022-07-17T16:22:11;20.64;62.03
67279;DHT22;54193;53.746;10.058;2022-07-17T16:24:57;20.43;62.11
67279;DHT22;54193;53.746;10.058;2022-07-17T16:27:42;20.39;62.61
67279;DHT22;54193;53.746;10.058;2022-07-17T16:30:28;20.32;62.60
67279;DHT22;54193;53.746;10.058;2022-07-17T16:33:14;20.50;63.32
67279;DHT22;54193;53.746;10.058;2022-07-17T16:36:00;20.44;63.32
67279;DHT22;54193;53.746;10.058;2022-07-17T16:38:46;20.47;62.73
67279;DHT22;54193;53.746;10.058;2022-07-17T16:41:32;20.45;62.35
67279;DHT22;54193;53.746;10.058;2022-07-17T16:44:17;20.39;62.78
67279;DHT22;54193;53.746;10.058;2022-07-17T16:47:04;20.26;62.88
67279;DHT22;54193;53.746;10.058;2022-07-17T16:49:50;20.24;63.13
67279;DHT22;54193;53.746;10.058;2022-07-17T16:52:36;20.24;63.65
67279;DHT22;54193;53.746;10.058;2022-07-17T16:55:22;20.00;64.30
67279;DHT22;54193;53.746;10.058;2022-07-17T16:58:08;20.02;64.43
67279;DHT22;54193;53.746;10.058;2022-07-17T17:00:55;19.78;64.55
67279;DHT22;54193;53.746;10.058;2022-07-17T17:03:42;19.74;65.26
67279;DHT22;54193;53.746;10.058;2022-07-17T17:06:31;19.96;64.25
67279;DHT22;54193;53.746;10.058;2022-07-17T17:09:17;20.20;64.95
67279;DHT22;54193;53.746;10.058;2022-07-17T17:12:03;20.14;63.66
67279;DHT22;54193;53.746;10.058;2022-07-17T17:14:49;20.08;64.11
67279;DHT22;54193;53.746;10.058;2022-07-17T17:17:35;20.13;64.12
67279;DHT22;54193;53.746;10.058;2022-07-17T17:20:21;20.27;63.54
67279;DHT22;54193;53.746;10.058;2022-07-17T17:23:07;20.36;63.32